ITY98 EDDH-EPWA
Flight info
| Callsign | ITY98 |
|---|---|
| Flight time | 1h 20m |
| Altitude | 31000 |
| Route | RAMAR6G RAMAR DCT PABMI DCT RADEL DCT ALUKA DCT DENKO P851 BIMPA |
| Aircraft | A320/M-SDE3FGHIRWY/LB1 |
Departure
| Time | 2026-04-22 21:42 |
|---|---|
| Airport | Hamburg Helmut Schmidt Airport (EDDH) |
Arrival
| Time | 2026-04-22 23:03 |
|---|---|
| Airport | Warsaw Chopin Airport (EPWA) |
| Time | Latitude | Longitude | Altitude | Speed | Heading |
|---|---|---|---|---|---|
| 2026-04-22 21:02 | 53.62903 | 9.99257 | 43 ft | 0 kts | 242° |
| 2026-04-22 21:25 | 53.62911 | 9.99282 | 45 ft | 4 kts | 240° |
| 2026-04-22 21:26 | 53.62926 | 9.99320 | 44 ft | 4 kts | 230° |
| 2026-04-22 21:26 | 53.62945 | 9.99350 | 41 ft | 4 kts | 201° |
| 2026-04-22 21:26 | 53.62962 | 9.99353 | 41 ft | 0 kts | 152° |
| 2026-04-22 21:33 | 53.62926 | 9.99383 | 44 ft | 12 kts | 152° |
| 2026-04-22 21:33 | 53.62850 | 9.99446 | 43 ft | 10 kts | 154° |
| 2026-04-22 21:33 | 53.62842 | 9.99453 | 45 ft | 0 kts | 151° |
| 2026-04-22 21:34 | 53.62821 | 9.99472 | 45 ft | 8 kts | 151° |
| 2026-04-22 21:34 | 53.62777 | 9.99513 | 45 ft | 7 kts | 152° |
| 2026-04-22 21:35 | 53.62740 | 9.99546 | 46 ft | 5 kts | 152° |
| 2026-04-22 21:35 | 53.62710 | 9.99571 | 46 ft | 4 kts | 152° |
| 2026-04-22 21:35 | 53.62688 | 9.99591 | 46 ft | 3 kts | 152° |
| 2026-04-22 21:35 | 53.62662 | 9.99614 | 46 ft | 6 kts | 150° |
| 2026-04-22 21:36 | 53.62640 | 9.99655 | 46 ft | 4 kts | 120° |
| 2026-04-22 21:36 | 53.62634 | 9.99686 | 46 ft | 2 kts | 102° |
| 2026-04-22 21:36 | 53.62635 | 9.99714 | 46 ft | 4 kts | 83° |
| 2026-04-22 21:36 | 53.62639 | 9.99741 | 45 ft | 0 kts | 77° |
| 2026-04-22 21:37 | 53.62639 | 9.99745 | 44 ft | 3 kts | 77° |
| 2026-04-22 21:37 | 53.62649 | 9.99790 | 47 ft | 6 kts | 63° |
| 2026-04-22 21:38 | 53.62703 | 9.99856 | 46 ft | 12 kts | 11° |
| 2026-04-22 21:38 | 53.62784 | 9.99818 | 47 ft | 13 kts | 333° |
| 2026-04-22 21:38 | 53.62872 | 9.99742 | 45 ft | 15 kts | 333° |
| 2026-04-22 21:38 | 53.62897 | 9.99721 | 47 ft | 0 kts | 333° |
| 2026-04-22 21:41 | 53.62948 | 9.99676 | 47 ft | 37 kts | 332° |
| 2026-04-22 21:42 | 53.63396 | 9.99289 | 46 ft | 104 kts | 333° |
| 2026-04-22 21:42 | 53.64194 | 9.98603 | 47 ft | 153 kts | 332° |
| 2026-04-22 21:42 | 53.65171 | 9.97766 | 596 ft | 157 kts | 331° |
| 2026-04-22 21:42 | 53.66150 | 9.96928 | 1331 ft | 158 kts | 331° |
| 2026-04-22 21:43 | 53.67185 | 9.96086 | 1753 ft | 179 kts | 340° |
| 2026-04-22 21:43 | 53.68497 | 9.96168 | 2123 ft | 206 kts | 21° |
| 2026-04-22 21:43 | 53.69567 | 9.97992 | 2587 ft | 237 kts | 64° |
| 2026-04-22 21:43 | 53.69787 | 10.00808 | 3409 ft | 248 kts | 91° |
| 2026-04-22 21:44 | 53.69519 | 10.03725 | 4187 ft | 258 kts | 99° |
| 2026-04-22 21:44 | 53.69090 | 10.06732 | 4812 ft | 272 kts | 101° |
| 2026-04-22 21:44 | 53.68617 | 10.09850 | 5683 ft | 276 kts | 101° |
| 2026-04-22 21:44 | 53.68160 | 10.13018 | 6574 ft | 279 kts | 100° |
| 2026-04-22 21:45 | 53.67731 | 10.16233 | 7438 ft | 281 kts | 99° |
| 2026-04-22 21:45 | 53.67332 | 10.19471 | 8295 ft | 283 kts | 98° |
| 2026-04-22 21:45 | 53.66955 | 10.22708 | 9173 ft | 285 kts | 98° |
| 2026-04-22 21:45 | 53.66581 | 10.26002 | 10048 ft | 287 kts | 98° |
| 2026-04-22 21:46 | 53.66208 | 10.29330 | 10768 ft | 294 kts | 98° |
| 2026-04-22 21:46 | 53.65818 | 10.32857 | 10999 ft | 317 kts | 98° |
| 2026-04-22 21:46 | 53.65402 | 10.36659 | 11194 ft | 340 kts | 98° |
| 2026-04-22 21:46 | 53.64953 | 10.40691 | 11504 ft | 356 kts | 98° |
| 2026-04-22 21:47 | 53.64486 | 10.44798 | 12142 ft | 362 kts | 98° |
| 2026-04-22 21:47 | 53.64003 | 10.49003 | 12841 ft | 366 kts | 98° |
| 2026-04-22 21:47 | 53.63522 | 10.53193 | 13538 ft | 369 kts | 98° |
| 2026-04-22 21:47 | 53.63033 | 10.57459 | 14224 ft | 372 kts | 98° |
| 2026-04-22 21:48 | 53.62539 | 10.61766 | 14827 ft | 376 kts | 99° |
| 2026-04-22 21:48 | 53.62037 | 10.66112 | 15409 ft | 379 kts | 99° |
| 2026-04-22 21:48 | 53.61528 | 10.70507 | 15990 ft | 383 kts | 99° |
| 2026-04-22 21:48 | 53.61015 | 10.74938 | 16558 ft | 387 kts | 99° |
| 2026-04-22 21:49 | 53.60503 | 10.79357 | 17106 ft | 390 kts | 99° |
| 2026-04-22 21:49 | 53.59979 | 10.83860 | 17652 ft | 394 kts | 99° |
| 2026-04-22 21:49 | 53.59447 | 10.88408 | 18180 ft | 397 kts | 99° |
| 2026-04-22 21:49 | 53.58906 | 10.93008 | 18700 ft | 401 kts | 99° |
| 2026-04-22 21:50 | 53.58360 | 10.97639 | 19175 ft | 404 kts | 99° |
| 2026-04-22 21:50 | 53.57807 | 11.02298 | 19663 ft | 406 kts | 99° |
| 2026-04-22 21:50 | 53.57251 | 11.06967 | 20169 ft | 408 kts | 99° |
| 2026-04-22 21:50 | 53.56701 | 11.11590 | 20663 ft | 409 kts | 99° |
| 2026-04-22 21:51 | 53.56136 | 11.16316 | 21158 ft | 411 kts | 100° |
| 2026-04-22 21:51 | 53.55569 | 11.21040 | 21643 ft | 412 kts | 100° |
| 2026-04-22 21:51 | 53.54993 | 11.25793 | 22117 ft | 414 kts | 100° |
| 2026-04-22 21:52 | 53.53841 | 11.35248 | 23049 ft | 417 kts | 100° |
| 2026-04-22 21:52 | 53.53257 | 11.40049 | 23501 ft | 419 kts | 100° |
| 2026-04-22 21:52 | 53.52659 | 11.44957 | 23939 ft | 420 kts | 99° |
| 2026-04-22 21:52 | 53.52082 | 11.49680 | 24294 ft | 422 kts | 100° |
| 2026-04-22 21:53 | 53.51485 | 11.54533 | 24672 ft | 423 kts | 100° |
| 2026-04-22 21:53 | 53.50894 | 11.59321 | 25057 ft | 423 kts | 100° |
| 2026-04-22 21:53 | 53.50291 | 11.64178 | 25440 ft | 424 kts | 100° |
| 2026-04-22 21:53 | 53.49684 | 11.69032 | 25812 ft | 425 kts | 100° |
| 2026-04-22 21:54 | 53.49390 | 11.71371 | 25986 ft | 425 kts | 100° |
| 2026-04-22 21:54 | 53.49103 | 11.73650 | 26158 ft | 425 kts | 100° |
| 2026-04-22 21:54 | 53.48500 | 11.78453 | 26513 ft | 426 kts | 100° |
| 2026-04-22 21:55 | 53.47888 | 11.83329 | 26860 ft | 426 kts | 100° |
| 2026-04-22 21:55 | 53.47276 | 11.88201 | 27184 ft | 427 kts | 100° |
| 2026-04-22 21:55 | 53.46657 | 11.93083 | 27514 ft | 428 kts | 100° |
| 2026-04-22 21:55 | 53.46030 | 11.97987 | 27847 ft | 429 kts | 100° |
| 2026-04-22 21:56 | 53.45403 | 12.02902 | 28156 ft | 430 kts | 100° |
| 2026-04-22 21:56 | 53.44776 | 12.07817 | 28503 ft | 430 kts | 100° |
| 2026-04-22 21:56 | 53.44158 | 12.12651 | 28960 ft | 427 kts | 100° |
| 2026-04-22 21:56 | 53.43532 | 12.17522 | 29450 ft | 424 kts | 100° |
| 2026-04-22 21:57 | 53.42904 | 12.22365 | 29941 ft | 421 kts | 100° |
| 2026-04-22 21:57 | 53.42289 | 12.27098 | 30406 ft | 419 kts | 100° |
| 2026-04-22 21:57 | 53.42231 | 12.27546 | 30449 ft | 418 kts | 100° |
| 2026-04-22 21:58 | 53.41680 | 12.31754 | 30798 ft | 416 kts | 100° |
| 2026-04-22 21:58 | 53.41559 | 12.32685 | 30874 ft | 416 kts | 100° |
| 2026-04-22 21:59 | 53.41124 | 12.36003 | 31131 ft | 415 kts | 100° |
| 2026-04-22 21:59 | 53.40513 | 12.40668 | 31260 ft | 414 kts | 100° |
| 2026-04-22 22:00 | 53.39884 | 12.45450 | 31287 ft | 415 kts | 100° |
| 2026-04-22 22:00 | 53.38642 | 12.54860 | 31280 ft | 416 kts | 100° |
| 2026-04-22 22:01 | 53.37381 | 12.64326 | 31276 ft | 416 kts | 100° |
| 2026-04-22 22:01 | 53.36118 | 12.73743 | 31274 ft | 416 kts | 100° |
| 2026-04-22 22:02 | 53.34840 | 12.83214 | 31271 ft | 416 kts | 100° |
| 2026-04-22 22:02 | 53.33559 | 12.92671 | 31265 ft | 416 kts | 100° |
| 2026-04-22 22:03 | 53.32283 | 13.02061 | 31268 ft | 416 kts | 100° |
| 2026-04-22 22:03 | 53.30989 | 13.11521 | 31263 ft | 416 kts | 100° |
| 2026-04-22 22:04 | 53.29680 | 13.20962 | 31256 ft | 416 kts | 100° |
| 2026-04-22 22:04 | 53.28372 | 13.30341 | 31248 ft | 416 kts | 100° |
| 2026-04-22 22:05 | 53.27051 | 13.39796 | 31247 ft | 416 kts | 100° |
| 2026-04-22 22:05 | 53.25725 | 13.49230 | 31252 ft | 417 kts | 100° |
| 2026-04-22 22:06 | 53.24622 | 13.57022 | 31246 ft | 417 kts | 100° |
| 2026-04-22 22:06 | 53.23276 | 13.66459 | 31240 ft | 417 kts | 100° |
| 2026-04-22 22:07 | 53.21705 | 13.77425 | 31236 ft | 417 kts | 100° |
| 2026-04-22 22:07 | 53.20573 | 13.85265 | 31231 ft | 417 kts | 100° |
| 2026-04-22 22:08 | 53.19204 | 13.94694 | 31244 ft | 418 kts | 100° |
| 2026-04-22 22:08 | 53.17837 | 14.04073 | 31231 ft | 418 kts | 100° |
| 2026-04-22 22:09 | 53.16451 | 14.13509 | 31226 ft | 419 kts | 100° |
| 2026-04-22 22:09 | 53.15063 | 14.22905 | 31226 ft | 419 kts | 100° |
| 2026-04-22 22:10 | 53.13658 | 14.32353 | 31224 ft | 419 kts | 101° |
| 2026-04-22 22:10 | 53.12245 | 14.41807 | 31233 ft | 419 kts | 100° |
| 2026-04-22 22:11 | 53.10833 | 14.51203 | 31220 ft | 421 kts | 100° |
| 2026-04-22 22:11 | 53.09417 | 14.60622 | 31238 ft | 420 kts | 101° |
| 2026-04-22 22:12 | 53.07975 | 14.70075 | 31234 ft | 420 kts | 101° |
| 2026-04-22 22:12 | 53.06533 | 14.79433 | 31231 ft | 420 kts | 101° |
| 2026-04-22 22:13 | 53.05083 | 14.88854 | 31216 ft | 419 kts | 101° |
| 2026-04-22 22:13 | 53.03631 | 14.98267 | 31228 ft | 420 kts | 101° |
| 2026-04-22 22:14 | 53.02177 | 15.07617 | 31209 ft | 420 kts | 101° |
| 2026-04-22 22:14 | 53.00704 | 15.17015 | 31217 ft | 419 kts | 101° |
| 2026-04-22 22:15 | 52.99226 | 15.26355 | 31203 ft | 419 kts | 101° |
| 2026-04-22 22:15 | 52.97741 | 15.35728 | 31203 ft | 419 kts | 101° |
| 2026-04-22 22:16 | 52.96259 | 15.45069 | 31214 ft | 420 kts | 101° |
| 2026-04-22 22:16 | 52.94759 | 15.54464 | 31211 ft | 420 kts | 101° |
| 2026-04-22 22:17 | 52.93244 | 15.63854 | 31202 ft | 421 kts | 101° |
| 2026-04-22 22:17 | 52.91727 | 15.73171 | 31197 ft | 421 kts | 101° |
| 2026-04-22 22:18 | 52.90204 | 15.82537 | 31195 ft | 421 kts | 101° |
| 2026-04-22 22:18 | 52.88680 | 15.91877 | 31212 ft | 421 kts | 101° |
| 2026-04-22 22:19 | 52.87134 | 16.01273 | 31202 ft | 421 kts | 101° |
| 2026-04-22 22:19 | 52.85594 | 16.10594 | 31195 ft | 422 kts | 101° |
| 2026-04-22 22:20 | 52.84036 | 16.19971 | 31193 ft | 422 kts | 101° |
| 2026-04-22 22:20 | 52.82466 | 16.29338 | 31193 ft | 422 kts | 101° |
| 2026-04-22 22:21 | 52.80886 | 16.38695 | 31201 ft | 422 kts | 101° |
| 2026-04-22 22:21 | 52.79303 | 16.47992 | 31199 ft | 422 kts | 101° |
| 2026-04-22 22:22 | 52.77710 | 16.57338 | 31190 ft | 422 kts | 101° |
| 2026-04-22 22:22 | 52.76116 | 16.66690 | 31188 ft | 422 kts | 101° |
| 2026-04-22 22:23 | 52.74518 | 16.75990 | 31177 ft | 422 kts | 101° |
| 2026-04-22 22:23 | 52.72911 | 16.85274 | 31190 ft | 423 kts | 101° |
| 2026-04-22 22:24 | 52.71285 | 16.94622 | 31177 ft | 423 kts | 101° |
| 2026-04-22 22:24 | 52.69700 | 17.03922 | 31175 ft | 421 kts | 97° |
| 2026-04-22 22:25 | 52.68692 | 17.13401 | 31165 ft | 419 kts | 95° |
| 2026-04-22 22:25 | 52.67700 | 17.22854 | 31163 ft | 419 kts | 95° |
| 2026-04-22 22:26 | 52.66691 | 17.32334 | 31172 ft | 420 kts | 95° |
| 2026-04-22 22:26 | 52.65664 | 17.41838 | 31152 ft | 420 kts | 95° |
| 2026-04-22 22:27 | 52.64637 | 17.51270 | 31136 ft | 420 kts | 95° |
| 2026-04-22 22:27 | 52.63606 | 17.60778 | 31136 ft | 420 kts | 95° |
| 2026-04-22 22:28 | 52.62566 | 17.70208 | 31124 ft | 421 kts | 96° |
| 2026-04-22 22:28 | 52.61498 | 17.79699 | 31152 ft | 421 kts | 95° |
| 2026-04-22 22:29 | 52.60435 | 17.89191 | 31142 ft | 421 kts | 95° |
| 2026-04-22 22:29 | 52.59372 | 17.98635 | 31135 ft | 421 kts | 95° |
| 2026-04-22 22:30 | 52.58301 | 18.08055 | 31125 ft | 421 kts | 96° |
| 2026-04-22 22:30 | 52.57201 | 18.17556 | 31123 ft | 421 kts | 96° |
| 2026-04-22 22:31 | 52.56091 | 18.26981 | 31135 ft | 421 kts | 96° |
| 2026-04-22 22:31 | 52.54977 | 18.36445 | 31120 ft | 422 kts | 96° |
| 2026-04-22 22:32 | 52.53851 | 18.45927 | 31110 ft | 422 kts | 96° |
| 2026-04-22 22:32 | 52.52731 | 18.55362 | 31102 ft | 422 kts | 96° |
| 2026-04-22 22:33 | 52.51590 | 18.64869 | 31096 ft | 423 kts | 96° |
| 2026-04-22 22:33 | 52.50455 | 18.74301 | 31085 ft | 424 kts | 96° |
| 2026-04-22 22:34 | 52.49300 | 18.83817 | 31101 ft | 425 kts | 96° |
| 2026-04-22 22:34 | 52.48123 | 18.93366 | 31047 ft | 427 kts | 96° |
| 2026-04-22 22:34 | 52.47528 | 18.98158 | 30785 ft | 428 kts | 96° |
| 2026-04-22 22:35 | 52.46934 | 19.02962 | 29787 ft | 432 kts | 96° |
| 2026-04-22 22:35 | 52.46342 | 19.07777 | 28570 ft | 438 kts | 96° |
| 2026-04-22 22:35 | 52.45726 | 19.12751 | 27549 ft | 439 kts | 96° |
| 2026-04-22 22:35 | 52.45120 | 19.17622 | 26366 ft | 444 kts | 96° |
| 2026-04-22 22:36 | 52.44494 | 19.22618 | 25288 ft | 448 kts | 97° |
| 2026-04-22 22:36 | 52.43859 | 19.27617 | 24499 ft | 444 kts | 97° |
| 2026-04-22 22:36 | 52.43227 | 19.32562 | 23679 ft | 442 kts | 97° |
| 2026-04-22 22:36 | 52.42594 | 19.37500 | 22809 ft | 440 kts | 97° |
| 2026-04-22 22:37 | 52.41979 | 19.42314 | 22086 ft | 435 kts | 97° |
| 2026-04-22 22:37 | 52.41361 | 19.47155 | 21357 ft | 432 kts | 97° |
| 2026-04-22 22:37 | 52.40745 | 19.51965 | 20658 ft | 429 kts | 97° |
| 2026-04-22 22:37 | 52.40130 | 19.56740 | 19967 ft | 426 kts | 97° |
| 2026-04-22 22:38 | 52.39528 | 19.61389 | 19554 ft | 417 kts | 97° |
| 2026-04-22 22:38 | 52.38927 | 19.65968 | 19423 ft | 401 kts | 97° |
| 2026-04-22 22:38 | 52.38349 | 19.70353 | 19298 ft | 386 kts | 96° |
| 2026-04-22 22:38 | 52.37963 | 19.74622 | 19023 ft | 371 kts | 86° |
| 2026-04-22 22:39 | 52.38107 | 19.78763 | 18793 ft | 360 kts | 75° |
| 2026-04-22 22:39 | 52.38725 | 19.82681 | 18613 ft | 352 kts | 64° |
| 2026-04-22 22:39 | 52.39619 | 19.86346 | 18343 ft | 350 kts | 62° |
| 2026-04-22 22:39 | 52.40531 | 19.90052 | 18005 ft | 349 kts | 62° |
| 2026-04-22 22:40 | 52.41435 | 19.93737 | 17694 ft | 348 kts | 62° |
| 2026-04-22 22:40 | 52.42336 | 19.97414 | 17388 ft | 347 kts | 62° |
| 2026-04-22 22:40 | 52.43232 | 20.01080 | 17084 ft | 346 kts | 62° |
| 2026-04-22 22:40 | 52.44122 | 20.04733 | 16778 ft | 344 kts | 63° |
| 2026-04-22 22:41 | 52.45007 | 20.08380 | 16467 ft | 343 kts | 63° |
| 2026-04-22 22:41 | 52.45878 | 20.11970 | 16167 ft | 342 kts | 63° |
| 2026-04-22 22:41 | 52.46756 | 20.15599 | 15872 ft | 341 kts | 63° |
| 2026-04-22 22:41 | 52.47627 | 20.19209 | 15573 ft | 340 kts | 63° |
| 2026-04-22 22:42 | 52.48497 | 20.22824 | 15277 ft | 337 kts | 63° |
| 2026-04-22 22:42 | 52.49327 | 20.26295 | 15139 ft | 325 kts | 63° |
| 2026-04-22 22:42 | 52.50114 | 20.29731 | 15025 ft | 317 kts | 68° |
| 2026-04-22 22:42 | 52.50436 | 20.33302 | 14883 ft | 319 kts | 84° |
| 2026-04-22 22:43 | 52.50113 | 20.36920 | 14660 ft | 323 kts | 102° |
| 2026-04-22 22:43 | 52.49169 | 20.40265 | 14395 ft | 328 kts | 115° |
| 2026-04-22 22:43 | 52.48029 | 20.43510 | 14145 ft | 327 kts | 115° |
| 2026-04-22 22:43 | 52.46891 | 20.46764 | 13888 ft | 327 kts | 115° |
| 2026-04-22 22:44 | 52.45766 | 20.49992 | 13608 ft | 325 kts | 115° |
| 2026-04-22 22:44 | 52.44654 | 20.53180 | 13351 ft | 324 kts | 115° |
| 2026-04-22 22:44 | 52.43533 | 20.56383 | 13096 ft | 323 kts | 115° |
| 2026-04-22 22:44 | 52.42414 | 20.59575 | 12845 ft | 322 kts | 116° |
| 2026-04-22 22:45 | 52.41305 | 20.62728 | 12603 ft | 320 kts | 116° |
| 2026-04-22 22:45 | 52.40196 | 20.65881 | 12356 ft | 319 kts | 116° |
| 2026-04-22 22:45 | 52.39090 | 20.69028 | 12103 ft | 318 kts | 116° |
| 2026-04-22 22:45 | 52.37988 | 20.72161 | 11803 ft | 317 kts | 116° |
| 2026-04-22 22:46 | 52.36892 | 20.75277 | 11478 ft | 315 kts | 116° |
| 2026-04-22 22:46 | 52.35796 | 20.78384 | 11166 ft | 314 kts | 116° |
| 2026-04-22 22:46 | 52.34709 | 20.81467 | 10849 ft | 312 kts | 116° |
| 2026-04-22 22:46 | 52.33636 | 20.84505 | 10534 ft | 311 kts | 116° |
| 2026-04-22 22:47 | 52.32549 | 20.87576 | 10198 ft | 309 kts | 116° |
| 2026-04-22 22:47 | 52.31467 | 20.90624 | 9883 ft | 308 kts | 116° |
| 2026-04-22 22:47 | 52.30405 | 20.93603 | 9562 ft | 306 kts | 116° |
| 2026-04-22 22:47 | 52.29331 | 20.96613 | 9250 ft | 305 kts | 116° |
| 2026-04-22 22:48 | 52.28263 | 20.99604 | 8951 ft | 304 kts | 118° |
| 2026-04-22 22:48 | 52.26951 | 21.02339 | 8633 ft | 307 kts | 133° |
| 2026-04-22 22:48 | 52.25264 | 21.04476 | 8327 ft | 308 kts | 149° |
| 2026-04-22 22:48 | 52.23388 | 21.06102 | 8019 ft | 307 kts | 152° |
| 2026-04-22 22:49 | 52.21495 | 21.07720 | 7710 ft | 306 kts | 152° |
| 2026-04-22 22:49 | 52.19613 | 21.09335 | 7416 ft | 303 kts | 152° |
| 2026-04-22 22:49 | 52.17806 | 21.10888 | 7287 ft | 292 kts | 152° |
| 2026-04-22 22:49 | 52.16038 | 21.12407 | 7166 ft | 281 kts | 152° |
| 2026-04-22 22:50 | 52.14330 | 21.13879 | 6962 ft | 274 kts | 152° |
| 2026-04-22 22:50 | 52.12658 | 21.15341 | 6775 ft | 272 kts | 152° |
| 2026-04-22 22:50 | 52.10995 | 21.16805 | 6532 ft | 271 kts | 152° |
| 2026-04-22 22:50 | 52.09361 | 21.18244 | 6271 ft | 270 kts | 152° |
| 2026-04-22 22:51 | 52.07708 | 21.19695 | 6012 ft | 270 kts | 151° |
| 2026-04-22 22:51 | 52.06061 | 21.21136 | 5722 ft | 268 kts | 152° |
| 2026-04-22 22:51 | 52.04419 | 21.22569 | 5509 ft | 267 kts | 152° |
| 2026-04-22 22:51 | 52.02777 | 21.24000 | 5263 ft | 267 kts | 152° |
| 2026-04-22 22:52 | 52.01144 | 21.25420 | 5024 ft | 266 kts | 152° |
| 2026-04-22 22:52 | 52.00065 | 21.26357 | 4925 ft | 264 kts | 152° |
| 2026-04-22 22:52 | 51.98430 | 21.27768 | 4862 ft | 265 kts | 152° |
| 2026-04-22 22:52 | 51.96267 | 21.29633 | 4780 ft | 266 kts | 152° |
| 2026-04-22 22:53 | 51.94634 | 21.31041 | 4717 ft | 266 kts | 152° |
| 2026-04-22 22:53 | 51.93546 | 21.31977 | 4679 ft | 266 kts | 152° |
| 2026-04-22 22:53 | 51.91893 | 21.33323 | 4613 ft | 265 kts | 162° |
| 2026-04-22 22:53 | 51.89541 | 21.33441 | 4523 ft | 253 kts | 205° |
| 2026-04-22 22:54 | 51.88505 | 21.32597 | 4472 ft | 243 kts | 225° |
| 2026-04-22 22:54 | 51.87446 | 21.30614 | 4409 ft | 230 kts | 250° |
| 2026-04-22 22:54 | 51.86701 | 21.28325 | 4342 ft | 230 kts | 250° |
| 2026-04-22 22:54 | 51.86197 | 21.25939 | 4273 ft | 217 kts | 275° |
| 2026-04-22 22:55 | 51.86486 | 21.23666 | 4222 ft | 205 kts | 303° |
| 2026-04-22 22:55 | 51.87428 | 21.22011 | 4163 ft | 200 kts | 329° |
| 2026-04-22 22:55 | 51.89892 | 21.19884 | 4057 ft | 200 kts | 332° |
| 2026-04-22 22:56 | 51.91107 | 21.18841 | 4002 ft | 200 kts | 332° |
| 2026-04-22 22:56 | 51.92338 | 21.17780 | 3901 ft | 200 kts | 332° |
| 2026-04-22 22:56 | 51.93565 | 21.16719 | 3799 ft | 200 kts | 332° |
| 2026-04-22 22:56 | 51.94797 | 21.15654 | 3699 ft | 199 kts | 333° |
| 2026-04-22 22:57 | 51.96022 | 21.14594 | 3606 ft | 199 kts | 333° |
| 2026-04-22 22:57 | 51.97222 | 21.13555 | 3508 ft | 194 kts | 333° |
| 2026-04-22 22:57 | 51.98399 | 21.12535 | 3419 ft | 190 kts | 333° |
| 2026-04-22 22:57 | 51.99558 | 21.11530 | 3320 ft | 185 kts | 333° |
| 2026-04-22 22:58 | 52.00657 | 21.10576 | 3229 ft | 176 kts | 333° |
| 2026-04-22 22:58 | 52.01714 | 21.09658 | 3148 ft | 168 kts | 333° |
| 2026-04-22 22:58 | 52.02717 | 21.08782 | 3099 ft | 156 kts | 333° |
| 2026-04-22 22:58 | 52.03635 | 21.07982 | 2980 ft | 144 kts | 333° |
| 2026-04-22 22:59 | 52.04501 | 21.07229 | 2832 ft | 138 kts | 333° |
| 2026-04-22 22:59 | 52.05328 | 21.06511 | 2656 ft | 135 kts | 333° |
| 2026-04-22 22:59 | 52.06155 | 21.05792 | 2477 ft | 134 kts | 333° |
| 2026-04-22 22:59 | 52.06981 | 21.05074 | 2274 ft | 136 kts | 333° |
| 2026-04-22 23:00 | 52.07812 | 21.04352 | 2088 ft | 134 kts | 333° |
| 2026-04-22 23:00 | 52.08617 | 21.03651 | 1921 ft | 132 kts | 333° |
| 2026-04-22 23:00 | 52.09428 | 21.02946 | 1736 ft | 132 kts | 332° |
| 2026-04-22 23:00 | 52.10240 | 21.02239 | 1558 ft | 132 kts | 332° |
| 2026-04-22 23:01 | 52.11039 | 21.01543 | 1377 ft | 132 kts | 332° |
| 2026-04-22 23:01 | 52.11848 | 21.00838 | 1195 ft | 133 kts | 331° |
| 2026-04-22 23:01 | 52.12665 | 21.00126 | 1012 ft | 132 kts | 331° |
| 2026-04-22 23:01 | 52.13474 | 20.99420 | 837 ft | 131 kts | 330° |
| 2026-04-22 23:02 | 52.14279 | 20.98718 | 671 ft | 130 kts | 330° |
| 2026-04-22 23:02 | 52.15076 | 20.98025 | 506 ft | 129 kts | 330° |
| 2026-04-22 23:02 | 52.15860 | 20.97352 | 358 ft | 128 kts | 330° |
| 2026-04-22 23:02 | 52.16514 | 20.96760 | 358 ft | 83 kts | 330° |
| 2026-04-22 23:03 | 52.16806 | 20.96531 | 359 ft | 35 kts | 343° |
| 2026-04-22 23:03 | 52.16995 | 20.96514 | 351 ft | 9 kts | 1° |
| 2026-04-22 23:03 | 52.17064 | 20.96531 | 351 ft | 11 kts | 24° |
| 2026-04-22 23:03 | 52.17105 | 20.96619 | 361 ft | 9 kts | 61° |
| 2026-04-22 23:04 | 52.17139 | 20.96724 | 358 ft | 14 kts | 62° |
| 2026-04-22 23:04 | 52.17137 | 20.96858 | 355 ft | 12 kts | 139° |
| 2026-04-22 23:04 | 52.17137 | 20.96968 | 359 ft | 10 kts | 59° |
| 2026-04-22 23:04 | 52.17144 | 20.96989 | 356 ft | 1 kts | 59° |
| 2026-04-22 23:05 | 52.17150 | 20.97005 | 354 ft | 1 kts | 60° |
| 2026-04-22 23:05 | 52.17152 | 20.97011 | 358 ft | 0 kts | 63° |